createdAt,value
2023-03-01T00:01:21.537Z,18.23
2023-03-01T00:03:48.477Z,17.08
2023-03-01T00:06:15.609Z,18.90
2023-03-01T00:08:42.795Z,22.60
2023-03-01T00:11:31.425Z,15.40
2023-03-01T00:14:01.967Z,16.63
2023-03-01T00:16:35.137Z,14.02
2023-03-01T00:19:02.546Z,18.23
2023-03-01T00:21:29.653Z,19.00
2023-03-01T00:23:56.939Z,19.55
2023-03-01T00:26:25.513Z,17.15
2023-03-01T00:28:53.149Z,19.20
2023-03-01T00:31:22.858Z,22.30
2023-03-01T00:33:49.860Z,16.33
2023-03-01T00:36:17.368Z,18.52
2023-03-01T00:38:46.522Z,16.80
2023-03-01T00:41:16.367Z,17.27
2023-03-01T00:43:45.244Z,16.40
2023-03-01T00:46:17.996Z,15.95
2023-03-01T00:48:45.078Z,19.88
2023-03-01T00:51:15.426Z,21.63
2023-03-01T00:53:42.216Z,17.65
2023-03-01T00:56:10.961Z,20.92
2023-03-01T00:58:38.617Z,18.15
2023-03-01T01:01:18.293Z,17.42
2023-03-01T01:03:50.142Z,19.27
2023-03-01T01:06:22.358Z,18.52
2023-03-01T01:08:50.618Z,19.20
2023-03-01T01:11:18.426Z,20.38
2023-03-01T01:13:46.946Z,21.48
2023-03-01T01:16:14.680Z,18.88
2023-03-01T01:18:42.234Z,18.42
2023-03-01T01:21:12.258Z,21.65
2023-03-01T01:23:40.643Z,21.20
2023-03-01T01:26:15.811Z,19.27
2023-03-01T01:28:42.609Z,19.30
2023-03-01T01:31:09.617Z,19.23
2023-03-01T01:33:38.469Z,21.15
2023-03-01T01:36:07.382Z,18.33
2023-03-01T01:38:35.087Z,22.00
2023-03-01T01:41:02.022Z,22.02
2023-03-01T01:43:31.688Z,20.90
2023-03-01T01:46:03.160Z,18.23
2023-03-01T01:48:41.412Z,21.95
2023-03-01T01:51:12.371Z,19.73
2023-03-01T01:53:41.000Z,21.80
2023-03-01T01:56:11.787Z,21.88
2023-03-01T01:58:39.643Z,20.05
2023-03-01T02:01:06.900Z,19.52
2023-03-01T02:03:38.880Z,20.30
2023-03-01T02:06:20.430Z,19.80
2023-03-01T02:08:51.758Z,19.85
2023-03-01T02:11:19.461Z,20.00
2023-03-01T02:13:49.272Z,17.40
2023-03-01T02:16:18.547Z,24.88
2023-03-01T02:18:46.251Z,18.65
2023-03-01T02:21:27.891Z,17.52
2023-03-01T02:23:58.520Z,17.85
2023-03-01T02:26:35.928Z,19.27
2023-03-01T02:29:02.722Z,19.77
2023-03-01T02:31:44.312Z,21.02
2023-03-01T02:34:19.551Z,20.10
2023-03-01T02:36:54.658Z,21.75
2023-03-01T02:39:27.474Z,21.90
2023-03-01T02:41:57.491Z,23.27
2023-03-01T02:44:24.294Z,23.33
2023-03-01T02:46:57.384Z,22.08
2023-03-01T02:49:29.915Z,19.88
2023-03-01T02:55:07.590Z,23.65
2023-03-01T02:57:36.507Z,19.45
2023-03-01T03:00:10.530Z,22.70
2023-03-01T03:02:38.200Z,21.88
2023-03-01T03:05:17.438Z,25.38
2023-03-01T03:07:47.524Z,21.15
2023-03-01T03:10:24.333Z,21.70
2023-03-01T03:12:57.089Z,21.88
2023-03-01T03:15:24.216Z,23.30
2023-03-01T03:17:52.261Z,22.42
2023-03-01T03:20:21.220Z,23.00
2023-03-01T03:22:50.416Z,22.65
2023-03-01T03:25:18.410Z,22.52
2023-03-01T03:27:47.105Z,19.17
2023-03-01T03:30:20.035Z,21.85
2023-03-01T03:32:54.486Z,23.45
2023-03-01T03:35:25.745Z,23.13
2023-03-01T03:38:02.711Z,19.63
2023-03-01T03:40:34.912Z,23.02
2023-03-01T03:43:02.510Z,26.38
2023-03-01T03:45:29.330Z,22.30
2023-03-01T03:47:56.053Z,20.02
2023-03-01T03:50:22.736Z,21.92
2023-03-01T03:52:49.377Z,22.30
2023-03-01T03:55:20.356Z,18.27
2023-03-01T03:57:52.656Z,23.80
2023-03-01T04:00:21.741Z,20.80
2023-03-01T04:02:49.838Z,22.50
2023-03-01T04:05:19.168Z,23.77
2023-03-01T04:07:46.902Z,21.60
2023-03-01T04:10:17.316Z,22.30
2023-03-01T04:12:44.502Z,23.85
2023-03-01T04:15:15.558Z,22.55
2023-03-01T04:17:44.131Z,20.52
2023-03-01T04:20:21.920Z,27.30
2023-03-01T04:22:48.586Z,27.02
2023-03-01T04:25:15.621Z,23.88
2023-03-01T04:27:42.329Z,22.38
2023-03-01T04:30:10.290Z,28.63
2023-03-01T04:32:37.111Z,19.42
2023-03-01T04:35:03.954Z,17.42
2023-03-01T04:37:30.809Z,19.48
2023-03-01T04:39:57.498Z,22.70
2023-03-01T04:42:24.195Z,20.45
2023-03-01T04:44:52.317Z,19.55
2023-03-01T04:47:19.002Z,22.52
2023-03-01T04:49:45.681Z,21.35
2023-03-01T04:52:12.375Z,20.73
2023-03-01T04:54:39.153Z,22.13
2023-03-01T04:57:05.844Z,21.40
2023-03-01T04:59:32.571Z,16.90
2023-03-01T05:02:01.405Z,20.98
2023-03-01T05:04:28.201Z,18.73
2023-03-01T05:06:54.913Z,20.30
2023-03-01T05:09:21.610Z,19.38
2023-03-01T05:11:48.281Z,22.35
2023-03-01T05:14:14.957Z,22.02
2023-03-01T05:16:41.580Z,24.13
2023-03-01T05:19:16.346Z,19.52
2023-03-01T05:22:02.887Z,22.95
2023-03-01T05:24:31.177Z,20.15
2023-03-01T05:26:58.092Z,22.10
2023-03-01T05:29:26.356Z,21.73
2023-03-01T05:31:57.596Z,22.95
2023-03-01T05:34:29.917Z,24.75
2023-03-01T05:36:56.601Z,20.55
2023-03-01T05:39:26.813Z,26.02
2023-03-01T05:41:54.927Z,25.60
2023-03-01T05:44:21.707Z,23.42
2023-03-01T05:46:48.692Z,21.63
2023-03-01T05:49:15.749Z,22.83
2023-03-01T05:51:43.888Z,21.92
2023-03-01T05:54:10.925Z,23.15
2023-03-01T05:56:37.902Z,22.65
2023-03-01T05:59:08.690Z,20.55
2023-03-01T06:01:36.604Z,20.27
2023-03-01T06:04:04.085Z,24.75
2023-03-01T06:06:34.617Z,27.42
2023-03-01T06:09:01.648Z,25.00
2023-03-01T06:11:28.324Z,22.98
2023-03-01T06:13:54.934Z,21.95
2023-03-01T06:16:21.578Z,21.38
2023-03-01T06:18:48.243Z,23.63
2023-03-01T06:21:14.920Z,21.88
2023-03-01T06:23:41.545Z,24.17
2023-03-01T06:26:09.479Z,24.17
2023-03-01T06:28:37.164Z,22.60
2023-03-01T06:31:04.356Z,25.50
2023-03-01T06:33:31.119Z,21.42
2023-03-01T06:35:57.988Z,26.10
2023-03-01T06:38:25.395Z,23.38
2023-03-01T06:40:55.966Z,22.65
2023-03-01T06:43:22.882Z,22.83
2023-03-01T06:45:49.582Z,22.70
2023-03-01T06:48:16.375Z,21.58
2023-03-01T06:50:43.131Z,20.65
2023-03-01T06:53:09.884Z,27.15
2023-03-01T06:55:36.611Z,21.60
2023-03-01T06:58:04.133Z,21.75
2023-03-01T07:00:31.563Z,22.63
2023-03-01T07:03:03.522Z,23.30
2023-03-01T07:05:31.310Z,24.42
2023-03-01T07:07:58.249Z,24.95
2023-03-01T07:10:25.365Z,25.65
2023-03-01T07:12:55.938Z,21.35
2023-03-01T07:15:22.620Z,20.60
2023-03-01T07:17:51.693Z,22.48
2023-03-01T07:20:20.243Z,22.48
2023-03-01T07:22:46.825Z,24.88
2023-03-01T07:25:13.496Z,25.08
2023-03-01T07:27:40.177Z,22.58
2023-03-01T07:30:07.701Z,24.23
2023-03-01T07:32:34.780Z,21.23
2023-03-01T07:35:01.460Z,21.88
2023-03-01T07:37:28.145Z,19.27
2023-03-01T07:39:54.830Z,20.00
2023-03-01T07:42:21.452Z,22.60
2023-03-01T07:44:48.130Z,21.40
2023-03-01T07:47:15.208Z,18.55
2023-03-01T07:49:42.204Z,13.25
2023-03-01T07:52:11.819Z,21.52
2023-03-01T07:54:39.309Z,23.27
2023-03-01T07:57:06.003Z,22.00
2023-03-01T07:59:33.643Z,21.10
2023-03-01T08:02:00.599Z,20.00
2023-03-01T08:04:27.794Z,19.25
2023-03-01T08:06:55.834Z,18.70
2023-03-01T08:09:22.969Z,24.13
2023-03-01T08:11:49.697Z,18.83
2023-03-01T08:14:16.492Z,19.25
2023-03-01T08:16:43.806Z,14.15
2023-03-01T08:19:12.664Z,21.00
2023-03-01T08:21:39.889Z,22.30
2023-03-01T08:24:07.657Z,17.95
2023-03-01T08:26:34.987Z,17.70
2023-03-01T08:29:02.370Z,22.70
2023-03-01T08:31:32.708Z,20.77
2023-03-01T08:34:02.006Z,13.45
2023-03-01T08:36:41.132Z,20.45
2023-03-01T08:39:09.793Z,22.02
2023-03-01T08:41:36.877Z,21.48
2023-03-01T08:44:04.290Z,16.02
2023-03-01T08:46:39.836Z,23.98
2023-03-01T08:49:12.903Z,23.15
2023-03-01T08:51:39.967Z,18.08
2023-03-01T08:54:12.821Z,18.70
2023-03-01T08:56:39.926Z,23.67
2023-03-01T08:59:06.618Z,22.20
2023-03-01T09:01:33.592Z,22.13
2023-03-01T09:04:00.962Z,19.45
2023-03-01T09:06:27.644Z,20.85
2023-03-01T09:08:55.782Z,20.90
2023-03-01T09:11:22.885Z,41.15
2023-03-01T09:13:50.238Z,25.45
2023-03-01T09:16:19.334Z,22.48
2023-03-01T09:18:49.493Z,25.92
2023-03-01T09:21:20.974Z,20.17
2023-03-01T09:23:51.588Z,21.73
2023-03-01T09:26:23.676Z,22.98
2023-03-01T09:28:52.181Z,15.55
2023-03-01T09:31:21.564Z,21.80
2023-03-01T09:33:49.931Z,23.85
2023-03-01T09:36:19.459Z,25.20
2023-03-01T09:38:46.836Z,20.75
2023-03-01T09:41:38.660Z,22.67
2023-03-01T09:44:44.041Z,20.93
2023-03-01T09:47:20.403Z,22.85
2023-03-01T09:50:21.574Z,24.70
2023-03-01T09:53:03.402Z,22.70
2023-03-01T09:56:01.406Z,12.90
2023-03-01T09:58:48.262Z,16.08
2023-03-01T10:01:23.954Z,18.08
2023-03-01T10:04:11.802Z,14.23
2023-03-01T10:06:40.595Z,21.23
2023-03-01T10:09:13.514Z,21.20
2023-03-01T10:11:46.130Z,24.90
2023-03-01T10:14:36.668Z,20.02
2023-03-01T10:17:10.311Z,23.92
2023-03-01T10:19:43.070Z,21.20
2023-03-01T10:22:32.430Z,22.23
2023-03-01T10:25:03.258Z,20.67
2023-03-01T10:27:55.722Z,17.73
2023-03-01T10:30:33.441Z,20.20
2023-03-01T10:33:02.336Z,16.35
2023-03-01T10:35:34.031Z,19.65
2023-03-01T10:38:12.329Z,16.50
2023-03-01T10:40:55.990Z,21.15
2023-03-01T10:43:22.894Z,22.20
2023-03-01T10:45:49.941Z,16.40
2023-03-01T10:48:17.907Z,24.08
2023-03-01T10:50:50.317Z,20.27
2023-03-01T10:55:59.540Z,18.42
2023-03-01T10:58:26.727Z,23.98
2023-03-01T11:01:01.500Z,20.10
2023-03-01T11:03:32.878Z,20.98
2023-03-01T11:06:11.866Z,18.50
2023-03-01T11:08:46.910Z,18.73
2023-03-01T11:11:13.909Z,22.77
2023-03-01T11:13:52.301Z,24.95
2023-03-01T11:16:35.220Z,17.20
2023-03-01T11:19:05.705Z,23.33
2023-03-01T11:21:35.822Z,21.48
2023-03-01T11:24:05.493Z,23.33
2023-03-01T11:26:37.070Z,20.73
2023-03-01T11:29:12.534Z,17.10
2023-03-01T11:31:52.367Z,20.52
2023-03-01T11:34:48.480Z,25.27
2023-03-01T11:37:39.376Z,19.42
2023-03-01T11:40:29.155Z,21.65
2023-03-01T11:43:27.026Z,16.63
2023-03-01T11:46:12.879Z,17.70
2023-03-01T11:49:17.114Z,21.63
2023-03-01T11:51:49.616Z,20.25
2023-03-01T11:54:31.890Z,19.27
2023-03-01T11:56:58.621Z,16.80
2023-03-01T11:59:50.292Z,21.67
2023-03-01T12:02:16.860Z,23.65
2023-03-01T12:04:55.118Z,19.95
2023-03-01T12:07:33.690Z,17.55
2023-03-01T12:10:09.385Z,16.55
2023-03-01T12:12:55.967Z,21.02
2023-03-01T12:15:47.229Z,17.55
2023-03-01T12:18:41.020Z,18.80
2023-03-01T12:21:22.895Z,18.45
2023-03-01T12:24:12.680Z,20.27
2023-03-01T12:27:06.980Z,19.10
2023-03-01T12:29:53.899Z,19.83
2023-03-01T12:32:36.541Z,16.83
2023-03-01T12:35:19.642Z,22.52
2023-03-01T12:37:46.218Z,14.25
2023-03-01T12:40:28.256Z,20.13
2023-03-01T12:43:17.367Z,17.42
2023-03-01T12:45:55.500Z,16.20
2023-03-01T12:48:31.449Z,17.65
2023-03-01T12:51:02.427Z,20.63
2023-03-01T12:53:37.083Z,20.15
2023-03-01T12:56:10.083Z,14.02
2023-03-01T12:58:56.273Z,16.08
2023-03-01T13:01:41.926Z,14.07
2023-03-01T13:04:35.083Z,14.43
2023-03-01T13:07:50.723Z,16.33
2023-03-01T13:10:26.871Z,15.38
2023-03-01T13:13:03.780Z,14.75
2023-03-01T13:15:33.416Z,16.08
2023-03-01T13:18:16.320Z,14.15
2023-03-01T13:20:43.108Z,17.73
2023-03-01T13:23:22.717Z,15.02
2023-03-01T13:26:15.849Z,14.10
2023-03-01T13:28:45.233Z,13.77
2023-03-01T13:31:32.085Z,13.23
2023-03-01T13:34:08.293Z,18.00
2023-03-01T13:36:38.330Z,15.20
2023-03-01T13:39:27.501Z,12.45
2023-03-01T13:41:56.895Z,14.93
2023-03-01T13:44:37.523Z,14.15
2023-03-01T13:47:07.306Z,16.92
2023-03-01T13:49:48.289Z,12.77
2023-03-01T13:52:36.337Z,11.55
2023-03-01T13:55:08.135Z,16.83
2023-03-01T13:57:37.557Z,15.13
2023-03-01T14:00:05.870Z,18.35
2023-03-01T14:02:35.255Z,14.68
2023-03-01T14:05:02.320Z,12.35
2023-03-01T14:07:32.484Z,15.40
2023-03-01T14:10:06.920Z,14.70
2023-03-01T14:12:57.274Z,16.45
2023-03-01T14:18:20.396Z,13.43
2023-03-01T14:20:53.716Z,16.95
2023-03-01T14:23:24.938Z,14.70
2023-03-01T14:25:55.290Z,17.52
2023-03-01T14:28:25.628Z,15.35
2023-03-01T14:30:54.513Z,13.75
2023-03-01T14:33:37.112Z,15.90
2023-03-01T14:38:41.292Z,15.60
2023-03-01T14:41:16.756Z,15.57
2023-03-01T14:43:51.009Z,17.40
2023-03-01T14:46:22.588Z,17.20
2023-03-01T14:48:55.410Z,18.65
2023-03-01T14:51:22.670Z,15.13
2023-03-01T14:53:51.503Z,16.98
2023-03-01T14:56:18.975Z,15.27
2023-03-01T14:58:48.697Z,14.95
2023-03-01T15:01:18.039Z,21.67
2023-03-01T15:03:47.677Z,19.67
2023-03-01T15:06:20.422Z,20.88
2023-03-01T15:08:53.161Z,18.92
2023-03-01T15:11:25.836Z,19.80
2023-03-01T15:13:53.753Z,19.75
2023-03-01T15:16:24.979Z,16.73
2023-03-01T15:18:55.008Z,15.73
2023-03-01T15:21:28.939Z,19.77
2023-03-01T15:23:58.867Z,17.55
2023-03-01T15:26:32.299Z,15.07
2023-03-01T15:29:00.545Z,17.65
2023-03-01T15:31:30.880Z,19.90
2023-03-01T15:34:33.099Z,17.70
2023-03-01T15:37:02.481Z,16.00
2023-03-01T15:39:38.230Z,15.13
2023-03-01T15:42:30.550Z,21.77
2023-03-01T15:45:16.986Z,17.63
2023-03-01T15:47:53.721Z,15.00
2023-03-01T15:50:29.859Z,13.13
2023-03-01T15:52:58.695Z,15.52
2023-03-01T15:55:30.566Z,15.73
2023-03-01T15:58:23.268Z,13.32
2023-03-01T16:03:29.433Z,15.98
2023-03-01T16:05:56.154Z,17.52
2023-03-01T16:08:22.838Z,17.23
2023-03-01T16:10:52.072Z,14.70
2023-03-01T16:13:19.101Z,14.48
2023-03-01T16:15:45.972Z,15.15
2023-03-01T16:18:12.939Z,18.02
2023-03-01T16:20:41.137Z,15.50
2023-03-01T16:23:09.779Z,16.15
2023-03-01T16:25:37.415Z,14.25
2023-03-01T16:28:09.791Z,18.10
2023-03-01T16:30:38.181Z,15.27
2023-03-01T16:33:19.214Z,13.43
2023-03-01T16:35:51.447Z,14.18
2023-03-01T16:38:18.124Z,12.65
2023-03-01T16:40:49.986Z,15.88
2023-03-01T16:43:16.698Z,13.80
2023-03-01T16:45:45.726Z,13.00
2023-03-01T16:48:12.924Z,12.05
2023-03-01T16:50:40.127Z,12.20
2023-03-01T16:53:07.113Z,13.88
2023-03-01T16:55:34.544Z,13.65
2023-03-01T16:58:02.105Z,16.05
2023-03-01T17:00:28.954Z,13.18
2023-03-01T17:02:55.706Z,13.02
2023-03-01T17:05:24.836Z,13.20
2023-03-01T17:07:51.990Z,14.55
2023-03-01T17:10:18.869Z,13.68
2023-03-01T17:12:48.737Z,14.75
2023-03-01T17:15:15.389Z,12.77
2023-03-01T17:17:42.083Z,13.35
2023-03-01T17:20:09.605Z,16.15
2023-03-01T17:22:36.288Z,13.88
2023-03-01T17:25:03.368Z,13.07
2023-03-01T17:27:30.025Z,15.02
2023-03-01T17:29:56.808Z,15.40
2023-03-01T17:32:23.664Z,13.65
2023-03-01T17:34:50.331Z,15.80
2023-03-01T17:37:17.004Z,15.48
2023-03-01T17:39:43.653Z,15.02
2023-03-01T17:42:10.407Z,17.88
2023-03-01T17:44:37.320Z,16.10
2023-03-01T17:47:05.471Z,18.30
2023-03-01T17:49:32.656Z,16.15
2023-03-01T17:52:00.064Z,17.40
2023-03-01T17:54:26.784Z,15.75
2023-03-01T17:56:53.879Z,17.30
2023-03-01T17:59:20.669Z,17.02
2023-03-01T18:01:47.793Z,18.20
2023-03-01T18:04:14.549Z,17.23
2023-03-01T18:06:41.408Z,19.13
2023-03-01T18:09:08.755Z,18.25
2023-03-01T18:11:35.994Z,19.20
2023-03-01T18:14:03.706Z,15.93
2023-03-01T18:16:32.037Z,19.25
2023-03-01T18:19:00.867Z,21.08
2023-03-01T18:21:29.802Z,18.98
2023-03-01T18:23:57.470Z,20.35
2023-03-01T18:26:25.163Z,20.65
2023-03-01T18:28:52.745Z,21.48
2023-03-01T18:31:22.474Z,21.35
2023-03-01T18:33:51.571Z,20.88
2023-03-01T18:36:27.607Z,21.75
2023-03-01T18:38:56.460Z,15.73
2023-03-01T18:41:25.385Z,20.63
2023-03-01T18:43:52.989Z,21.92
2023-03-01T18:46:20.479Z,22.98
2023-03-01T18:48:48.308Z,23.95
2023-03-01T18:51:21.297Z,23.20
2023-03-01T18:53:48.115Z,21.45
2023-03-01T18:56:15.464Z,22.23
2023-03-01T18:58:45.624Z,23.42
2023-03-01T19:01:18.836Z,21.88
2023-03-01T19:03:46.071Z,21.13
2023-03-01T19:06:13.382Z,20.80
2023-03-01T19:08:42.135Z,26.30
2023-03-01T19:11:09.610Z,20.55
2023-03-01T19:13:38.476Z,20.65
2023-03-01T19:16:11.297Z,22.55
2023-03-01T19:18:41.117Z,26.30
2023-03-01T19:21:09.691Z,25.85
2023-03-01T19:23:38.372Z,20.52
2023-03-01T19:26:07.806Z,21.77
2023-03-01T19:28:37.553Z,23.88
2023-03-01T19:31:08.455Z,24.00
2023-03-01T19:33:35.872Z,26.25
2023-03-01T19:36:03.816Z,27.85
2023-03-01T19:38:30.880Z,23.92
2023-03-01T19:40:58.163Z,23.70
2023-03-01T19:43:25.280Z,28.67
2023-03-01T19:45:53.518Z,25.88
2023-03-01T19:48:20.768Z,25.95
2023-03-01T19:50:49.043Z,23.50
2023-03-01T19:53:16.164Z,27.92
2023-03-01T19:55:43.105Z,28.33
2023-03-01T19:58:13.064Z,24.23
2023-03-01T20:00:44.107Z,26.13
2023-03-01T20:03:10.803Z,24.40
2023-03-01T20:05:38.770Z,25.13
2023-03-01T20:08:06.174Z,24.63
2023-03-01T20:10:34.084Z,26.20
2023-03-01T20:13:04.043Z,23.30
2023-03-01T20:15:31.043Z,24.02
2023-03-01T20:17:57.715Z,30.63
2023-03-01T20:20:24.435Z,26.40
2023-03-01T20:22:51.097Z,25.70
2023-03-01T20:25:18.262Z,24.05
2023-03-01T20:27:47.485Z,25.00
2023-03-01T20:30:15.836Z,25.45
2023-03-01T20:32:42.852Z,28.73
2023-03-01T20:35:10.923Z,26.90
2023-03-01T20:37:37.806Z,23.35
2023-03-01T20:40:05.490Z,26.83
2023-03-01T20:42:32.190Z,25.92
2023-03-01T20:44:58.831Z,25.95
2023-03-01T20:47:25.550Z,26.15
2023-03-01T20:49:52.238Z,25.75
2023-03-01T20:52:19.136Z,27.33
2023-03-01T20:54:45.955Z,23.27
2023-03-01T20:57:12.582Z,30.50
2023-03-01T20:59:39.228Z,27.15
2023-03-01T21:02:05.997Z,25.42
2023-03-01T21:04:32.717Z,22.92
2023-03-01T21:06:59.392Z,23.45
2023-03-01T21:09:26.112Z,28.25
2023-03-01T21:11:52.790Z,24.70
2023-03-01T21:14:19.507Z,27.67
2023-03-01T21:16:46.328Z,23.08
2023-03-01T21:19:13.317Z,23.48
2023-03-01T21:21:39.936Z,22.10
2023-03-01T21:24:10.088Z,25.50
2023-03-01T21:26:37.680Z,24.00
2023-03-01T21:29:04.686Z,28.85
2023-03-01T21:31:35.325Z,21.02
2023-03-01T21:34:05.055Z,25.35
2023-03-01T21:36:33.103Z,23.38
2023-03-01T21:39:03.795Z,23.15
2023-03-01T21:41:33.615Z,21.45
2023-03-01T21:44:03.019Z,25.55
2023-03-01T21:46:33.698Z,25.75
2023-03-01T21:49:00.639Z,24.30
2023-03-01T21:51:28.303Z,21.38
2023-03-01T21:53:55.793Z,25.13
2023-03-01T21:56:28.122Z,23.88
2023-03-01T21:58:55.288Z,23.83
2023-03-01T22:01:25.791Z,26.00
2023-03-01T22:03:52.889Z,21.83
2023-03-01T22:06:25.524Z,21.13
2023-03-01T22:08:56.069Z,24.33
2023-03-01T22:11:23.193Z,20.80
2023-03-01T22:13:52.298Z,21.85
2023-03-01T22:16:25.807Z,21.45
2023-03-01T22:18:52.726Z,19.67
2023-03-01T22:21:19.839Z,21.15
2023-03-01T22:23:46.593Z,17.63
2023-03-01T22:26:27.818Z,24.92
2023-03-01T22:28:57.088Z,19.52
2023-03-01T22:31:24.160Z,22.20
2023-03-01T22:33:52.133Z,22.70
2023-03-01T22:36:20.014Z,21.20
2023-03-01T22:38:46.895Z,18.27
2023-03-01T22:41:14.187Z,20.52
2023-03-01T22:43:41.064Z,21.48
2023-03-01T22:46:18.529Z,20.90
2023-03-01T22:48:46.080Z,18.48
2023-03-01T22:51:26.337Z,22.88
2023-03-01T22:53:53.103Z,20.58
2023-03-01T22:56:31.675Z,22.15
2023-03-01T22:59:04.403Z,19.30
2023-03-01T23:01:31.299Z,16.17
2023-03-01T23:03:58.497Z,17.92
2023-03-01T23:06:25.439Z,22.08
2023-03-01T23:08:57.533Z,22.15
2023-03-01T23:11:25.814Z,21.25
2023-03-01T23:13:54.181Z,17.33
2023-03-01T23:16:29.661Z,18.27
2023-03-01T23:18:59.102Z,18.00
2023-03-01T23:21:25.926Z,17.92
2023-03-01T23:23:55.328Z,16.67
2023-03-01T23:26:22.555Z,19.63
2023-03-01T23:28:50.867Z,19.92
2023-03-01T23:31:18.196Z,21.65
2023-03-01T23:33:46.619Z,20.98
2023-03-01T23:36:25.175Z,18.90
2023-03-01T23:38:55.481Z,21.08
2023-03-01T23:41:25.921Z,22.80
2023-03-01T23:43:55.405Z,18.98
2023-03-01T23:46:25.359Z,21.38
2023-03-01T23:48:53.657Z,18.23
2023-03-01T23:51:20.935Z,21.73
2023-03-01T23:53:57.416Z,19.98
2023-03-01T23:56:27.915Z,26.50
2023-03-01T23:59:00.710Z,17.13
